Data for 04/09/2018

Time Sea-Level Adjusted Pressure Absolute Pressure Temperature Relative Humidity Dew Point   
(mb) (inHg) (mb) (inHg) (C) (F) (%) (C) (F)
00:05 1020 30.12 849 25.07 2.7 36.8 71 -2.2 28.1
00:10 1020 30.12 849 25.07 2.6 36.8 70 -2.3 27.9
00:15 1020 30.12 849 25.07 2.7 36.9 69 -2.4 27.7
00:20 1020 30.12 849 25.07 2.7 36.9 68 -2.6 27.4
00:25 1020 30.12 849 25.07 2.8 37 67 -2.7 27.1
00:30 1020 30.12 849 25.07 2.9 37.2 67 -2.6 27.2
00:35 1020 30.12 849 25.07 2.9 37.3 66 -2.8 26.9
00:40 1020 30.12 849 25.07 2.9 37.2 66 -2.9 26.8
00:45 1020 30.12 849 25.07 2.9 37.2 64 -3.3 26.1
00:50 1020 30.12 849 25.07 3 37.5 62 -3.6 25.5
00:55 1020 30.12 849 25.07 3.2 37.7 62 -3.3 26
01:00 1020 30.12 849 25.07 3 37.4 64 -3.1 26.4
01:05 1020 30.12 849 25.07 2.8 37.1 64 -3.4 25.9
01:10 1020 30.12 849 25.07 2.9 37.3 62 -3.7 25.3
01:15 1020 30.12 849 25.07 3.1 37.5 61 -3.8 25.2
01:20 1020 30.12 849 25.07 3.1 37.5 61 -3.7 25.3
01:25 1020 30.12 849 25.07 3 37.4 61 -3.7 25.3
01:30 1020 30.12 849 25.07 2.9 37.2 62 -3.6 25.5
01:35 1020 30.12 850 25.1 2.8 37 62 -3.7 25.4
01:40 1020 30.12 850 25.1 2.8 37 64 -3.5 25.8
01:45 1020 30.12 850 25.1 2.6 36.7 64 -3.5 25.8
01:50 1020 30.12 850 25.1 2.5 36.6 65 -3.3 26
01:55 1020 30.12 850 25.1 2.5 36.4 65 -3.4 25.8
02:00 1020 30.12 850 25.1 2.4 36.4 64 -3.6 25.5
02:05 1021 30.15 850 25.1 2.4 36.4 65 -3.5 25.7
02:10 1021 30.15 850 25.1 2.4 36.3 65 -3.6 25.6
02:15 1021 30.15 850 25.1 2.3 36.2 66 -3.4 25.8
02:20 1021 30.15 850 25.1 2.3 36.2 65 -3.6 25.5
02:25 1021 30.15 850 25.1 2.4 36.2 65 -3.6 25.5
02:30 1021 30.15 850 25.1 2.5 36.5 63 -3.8 25.1
02:35 1021 30.15 850 25.1 2.6 36.7 63 -3.8 25.2
02:40 1021 30.15 850 25.1 2.6 36.6 64 -3.5 25.6
02:45 1021 30.15 850 25.1 2.6 36.6 64 -3.6 25.5
02:50 1021 30.15 850 25.1 2.6 36.7 62 -3.9 25
02:55 1021 30.15 850 25.1 2.7 36.8 63 -3.7 25.3
03:00 1021 30.15 850 25.1 2.7 36.9 63 -3.6 25.6
03:05 1021 30.15 850 25.1 2.7 36.8 64 -3.4 25.8
03:10 1021 30.15 851 25.13 2.5 36.4 67 -3 26.6
03:15 1021 30.15 851 25.13 2 35.7 69 -3.1 26.5
03:20 1021 30.15 851 25.13 1.9 35.5 69 -3.1 26.4
03:25 1021 30.15 851 25.13 2 35.5 68 -3.3 26.1
03:30 1021 30.15 851 25.13 2 35.7 68 -3.3 26.1
03:35 1021 30.15 851 25.13 2.1 35.8 67 -3.3 26
03:40 1021 30.15 851 25.13 2.1 35.8 67 -3.5 25.8
03:45 1021 30.15 851 25.13 2 35.7 66 -3.7 25.3
03:50 1021 30.15 851 25.13 2.1 35.7 65 -3.9 25
03:55 1021 30.15 851 25.13 2.1 35.7 64 -4 24.7
04:00 1021 30.15 851 25.13 2.1 35.8 62 -4.4 24.1
04:05 1021 30.15 851 25.13 2.2 35.9 62 -4.3 24.2
04:10 1021 30.15 851 25.13 2.2 35.9 63 -4.2 24.4
04:15 1021 30.15 851 25.13 1.9 35.4 70 -3.1 26.4
04:20 1021 30.15 851 25.13 1.4 34.4 72 -3.2 26.2
04:25 1022 30.18 851 25.13 1.2 34.2 72 -3.3 26.1
04:30 1022 30.18 851 25.13 1.3 34.3 65 -4.5 23.9
04:35 1022 30.18 851 25.13 1.5 34.8 64 -4.4 24
04:40 1022 30.18 851 25.13 1.6 34.8 65 -4.4 24.1
04:45 1022 30.18 851 25.13 1.6 34.9 65 -4.2 24.4
04:50 1022 30.18 851 25.13 1.6 34.9 63 -4.7 23.6
04:55 1022 30.18 851 25.13 1.7 35 63 -4.6 23.7
05:00 1022 30.18 851 25.13 1.8 35.2 61 -4.9 23.2
05:05 1022 30.18 851 25.13 2 35.6 61 -4.7 23.5
05:10 1022 30.18 851 25.13 2 35.7 63 -4.4 24.1
05:15 1022 30.18 851 25.13 2 35.6 62 -4.5 23.9
05:20 1022 30.18 851 25.13 2.1 35.8 61 -4.5 23.9
05:25 1022 30.18 851 25.13 2.2 36 61 -4.6 23.7
05:30 1022 30.18 851 25.13 2.3 36.1 60 -4.6 23.7
05:35 1022 30.18 851 25.13 2.3 36.2 60 -4.5 23.8
05:40 1022 30.18 851 25.13 2.3 36.2 61 -4.4 24
05:45 1022 30.18 851 25.13 2.3 36.1 60 -4.6 23.7
05:50 1022 30.18 851 25.13 2.3 36.1 60 -4.8 23.4
05:55 1022 30.18 851 25.13 2.3 36.2 59 -4.8 23.4
06:00 1022 30.18 851 25.13 2.4 36.4 58 -5 23.1
06:05 1022 30.18 851 25.13 2.5 36.6 57 -5.2 22.7
06:10 1022 30.18 851 25.13 2.6 36.7 57 -5.1 22.8
06:15 1022 30.18 851 25.13 2.7 36.8 56 -5.1 22.8
06:20 1022 30.18 851 25.13 2.7 36.9 56 -5.2 22.7
06:25 1022 30.18 851 25.13 2.8 37.1 55 -5.3 22.4
06:30 1022 30.18 851 25.13 2.9 37.2 54 -5.4 22.2
06:35 1022 30.18 852 25.16 3 37.4 54 -5.5 22.1
06:40 1022 30.18 852 25.16 3 37.4 55 -5.2 22.7
06:45 1022 30.18 852 25.16 2.9 37.1 56 -5 23
06:50 1023 30.21 852 25.16 2.6 36.6 61 -4.3 24.3
06:55 1023 30.21 852 25.16 2.2 36 62 -4.2 24.4
07:00 1023 30.21 852 25.16 2.1 35.8 64 -4 24.7
07:05 1023 30.21 852 25.16 2.1 35.8 61 -4.6 23.7
07:10 1023 30.21 852 25.16 2.3 36.1 62 -4.3 24.3
07:15 1023 30.21 852 25.16 2.3 36.1 62 -4.2 24.4
07:20 1023 30.21 852 25.16 2.3 36.1 63 -4.1 24.6
07:25 1023 30.21 852 25.16 2.2 36 63 -4 24.7
07:30 1023 30.21 852 25.16 2.3 36.1 61 -4.6 23.8
07:35 1023 30.21 852 25.16 2.5 36.4 60 -4.5 23.9
07:40 1023 30.21 852 25.16 2.6 36.7 60 -4.4 24.1
07:45 1023 30.21 852 25.16 2.6 36.7 60 -4.4 24.2
07:50 1023 30.21 852 25.16 2.7 36.9 61 -4.1 24.6
07:55 1023 30.21 853 25.19 2.8 37 62 -3.9 25.1
08:00 1023 30.21 853 25.19 2.7 36.8 62 -3.9 24.9
08:05 1024 30.24 853 25.19 2.7 36.9 62 -3.8 25.1
08:10 1024 30.24 853 25.19 2.7 36.8 62 -3.8 25.2
08:15 1024 30.24 853 25.19 2.6 36.7 63 -3.7 25.4
08:20 1024 30.24 853 25.19 2.5 36.6 62 -3.9 24.9
08:25 1024 30.24 853 25.19 2.5 36.4 64 -3.6 25.5
08:30 1024 30.24 853 25.19 2.5 36.5 63 -3.9 24.9
08:35 1024 30.24 853 25.19 2.6 36.7 62 -4 24.8
08:40 1024 30.24 853 25.19 2.8 37.1 62 -3.8 25.1
08:45 1024 30.24 853 25.19 2.9 37.2 63 -3.4 26
08:50 1024 30.24 853 25.19 2.9 37.1 64 -3.4 26
08:55 1024 30.24 853 25.19 2.8 37.1 63 -3.6 25.5
09:00 1024 30.24 853 25.19 2.9 37.2 63 -3.5 25.8
09:05 1024 30.24 853 25.19 2.9 37.3 63 -3.4 25.9
09:10 1024 30.24 853 25.19 3.1 37.5 62 -3.4 25.8
09:15 1024 30.24 853 25.19 3.2 37.8 61 -3.7 25.4
09:20 1024 30.24 853 25.19 3.3 37.9 60 -3.6 25.5
09:25 1024 30.24 853 25.19 3.5 38.2 58 -4.1 24.7
09:30 1024 30.24 853 25.19 3.6 38.5 56 -4.5 24
09:35 1024 30.24 853 25.19 3.8 38.8 56 -4.2 24.4
09:40 1024 30.24 853 25.19 4 39.1 54 -4.5 23.9
09:45 1024 30.24 853 25.19 4 39.2 54 -4.6 23.7
09:50 1024 30.24 853 25.19 4 39.2 54 -4.4 24
09:55 1024 30.24 853 25.19 4.2 39.5 53 -4.6 23.7
10:00 1024 30.24 853 25.19 4.4 39.8 52 -4.6 23.7
10:05 1024 30.24 853 25.19 4.5 40.1 52 -4.4 24
10:10 1024 30.24 853 25.19 4.6 40.2 52 -4.3 24.2
10:15 1024 30.24 854 25.22 4.7 40.5 53 -4.1 24.5
10:20 1024 30.24 854 25.22 4.8 40.6 51 -4.5 23.8
10:25 1024 30.24 854 25.22 4.9 40.8 53 -4 24.8
10:30 1024 30.24 854 25.22 5.1 41.3 52 -3.8 25.2
10:35 1024 30.24 854 25.22 5.2 41.4 52 -3.8 25.2
10:40 1024 30.24 854 25.22 5.3 41.5 52 -3.7 25.4
10:45 1024 30.24 854 25.22 5.3 41.6 53 -3.4 25.9
10:50 1024 30.24 854 25.22 5.3 41.6 52 -3.7 25.3
10:55 1024 30.24 854 25.22 5.3 41.6 50 -4.4 24.2
11:00 1024 30.24 854 25.22 5.5 41.9 49 -4.3 24.2
11:05 1024 30.24 854 25.22 5.8 42.4 48 -4.5 23.9
11:10 1024 30.24 854 25.22 5.7 42.3 48 -4.5 23.9
11:15 1024 30.24 854 25.22 6.1 42.9 49 -3.8 25.2
11:20 1024 30.24 854 25.22 6.4 43.5 47 -4.1 24.6
11:25 1024 30.24 854 25.22 6.5 43.8 48 -3.7 25.3
11:30 1024 30.24 854 25.22 6.2 43.1 48 -4 24.8
11:35 1024 30.24 854 25.22 5.8 42.4 47 -4.6 23.7
11:40 1024 30.24 853 25.19 5.9 42.6 47 -4.5 23.8
11:45 1024 30.24 854 25.22 6 42.7 47 -4.5 24
11:50 1024 30.24 854 25.22 5.7 42.3 47 -4.6 23.7
11:55 1024 30.24 854 25.22 5.9 42.6 47 -4.5 23.9
12:00 1024 30.24 854 25.22 6.1 43 47 -4.4 24.1
12:05 1024 30.24 854 25.22 6.3 43.4 45 -4.8 23.3
12:10 1024 30.24 854 25.22 6.7 44.1 44 -4.7 23.5
12:15 1024 30.24 854 25.22 6.9 44.5 45 -4.1 24.5
12:20 1024 30.24 854 25.22 7.3 45.1 44 -4.1 24.6
12:25 1024 30.24 854 25.22 7.3 45.1 45 -3.9 25
12:30 1024 30.24 854 25.22 7.4 45.2 43 -4.3 24.2
12:35 1024 30.24 854 25.22 8.4 47.1 36 -5.9 21.4
12:40 1024 30.24 854 25.22 8.7 47.7 35 -6.1 21.1
12:45 1024 30.24 854 25.22 8.9 48 34 -6.3 20.7
12:50 1024 30.24 854 25.22 8.8 47.9 33 -6.7 19.9
12:55 1024 30.24 854 25.22 8.3 47 34 -6.5 20.3
13:00 1024 30.24 854 25.22 8.3 46.9 32 -7.4 18.6
13:05 1024 30.24 854 25.22 8.3 46.9 34 -6.6 20.1
13:10 1024 30.24 854 25.22 8.5 47.3 33 -6.9 19.6
13:15 1024 30.24 854 25.22 8.1 46.6 32 -7.5 18.6
13:20 1025 30.27 854 25.22 8.2 46.8 32 -7.6 18.3
13:25 1024 30.24 854 25.22 8.1 46.6 33 -7.2 19.1
13:30 1024 30.24 854 25.22 8.3 47 33 -7.1 19.2
13:35 1024 30.24 854 25.22 8.3 47 34 -6.7 19.9
13:40 1024 30.24 854 25.22 8.8 47.9 33 -6.7 20
13:45 1024 30.24 853 25.19 9.1 48.4 33 -6.3 20.6
13:50 1024 30.24 853 25.19 9 48.2 32 -6.8 19.8
13:55 1024 30.24 853 25.19 9.1 48.3 32 -6.6 20.2
14:00 1024 30.24 853 25.19 8.5 47.3 33 -6.7 19.9
14:05 1024 30.24 853 25.19 8.8 47.9 31 -7.4 18.6
14:10 1024 30.24 853 25.19 9.1 48.3 32 -6.9 19.6
14:15 1024 30.24 853 25.19 9.7 49.4 30 -7.2 19.1
14:20 1024 30.24 853 25.19 10 50 29 -7.4 18.7
14:25 1024 30.24 853 25.19 9.3 48.7 31 -6.8 19.7
14:30 1024 30.24 853 25.19 8.7 47.7 31 -7.5 18.5
14:35 1024 30.24 853 25.19 8.5 47.2 31 -7.6 18.4
14:40 1024 30.24 853 25.19 8.6 47.4 32 -7.2 19.1
14:45 1024 30.24 853 25.19 8.7 47.7 32 -7.2 19.1
14:50 1024 30.24 853 25.19 9.1 48.3 30 -7.7 18.2
14:55 1024 30.24 853 25.19 8.9 48 33 -6.7 20
15:00 1024 30.24 853 25.19 8.9 48.1 32 -7 19.3
15:05 1024 30.24 853 25.19 8.7 47.6 32 -6.9 19.5
15:10 1024 30.24 853 25.19 9 48.3 30 -7.5 18.5
15:15 1024 30.24 853 25.19 8.9 48.1 30 -7.7 18.1
15:20 1024 30.24 853 25.19 9 48.1 31 -7.1 19.2
15:25 1024 30.24 853 25.19 8.7 47.7 32 -7.2 19
15:30 1024 30.24 853 25.19 8.8 47.8 31 -7.4 18.6
15:35 1023 30.21 853 25.19 9 48.2 31 -7 19.3
15:40 1023 30.21 853 25.19 9.2 48.5 31 -7.2 19.1
15:45 1023 30.21 853 25.19 9.2 48.6 29 -8 17.6
15:50 1023 30.21 853 25.19 9.1 48.3 29 -7.9 17.8
15:55 1023 30.21 853 25.19 9.1 48.3 30 -7.7 18.1
16:00 1023 30.21 852 25.16 8.8 47.8 32 -7.1 19.2
16:05 1023 30.21 853 25.19 9.3 48.7 30 -7.4 18.7
16:10 1023 30.21 853 25.19 9.6 49.2 30 -7.2 19
16:15 1023 30.21 853 25.19 9.6 49.2 30 -7.1 19.2
16:20 1023 30.21 853 25.19 9.5 49 30 -7.3 18.9
16:25 1023 30.21 852 25.16 9.2 48.6 31 -7.1 19.1
16:30 1023 30.21 852 25.16 9.5 49 31 -7 19.4
16:35 1023 30.21 852 25.16 9.6 49.3 30 -7.1 19.2
16:40 1023 30.21 852 25.16 9.7 49.4 29 -7.3 18.8
16:45 1023 30.21 852 25.16 9.6 49.2 29 -7.5 18.6
16:50 1023 30.21 852 25.16 9.6 49.2 29 -7.5 18.6
16:55 1023 30.21 852 25.16 9.8 49.6 29 -7.5 18.4
17:00 1023 30.21 852 25.16 9.8 49.7 30 -7.2 19.1
17:05 1023 30.21 852 25.16 9.8 49.6 30 -6.9 19.5
17:10 1023 30.21 852 25.16 9.9 49.8 30 -6.9 19.6
17:15 1023 30.21 852 25.16 9.9 49.9 30 -6.8 19.8
17:20 1023 30.21 852 25.16 10 49.9 30 -6.8 19.7
17:25 1023 30.21 852 25.16 10.3 50.5 29 -7 19.4
17:30 1023 30.21 852 25.16 10.9 51.6 28 -6.9 19.5
17:35 1023 30.21 852 25.16 11.5 52.6 27 -7 19.5
17:40 1023 30.21 852 25.16 11.5 52.7 26 -7.4 18.7
17:45 1023 30.21 852 25.16 11.2 52.2 27 -7.1 19.1
17:50 1023 30.21 852 25.16 11.2 52.2 27 -7.2 19.1
17:55 1022 30.18 852 25.16 11.1 52 27 -7.4 18.7
18:00 1022 30.18 852 25.16 11 51.9 28 -6.9 19.6
18:05 1022 30.18 852 25.16 11.1 51.9 26 -7.6 18.2
18:10 1022 30.18 851 25.13 11 51.9 26 -7.8 17.9
18:15 1022 30.18 851 25.13 10.7 51.3 27 -7.5 18.6
18:20 1022 30.18 851 25.13 10.6 51.1 27 -7.5 18.5
18:25 1022 30.18 852 25.16 10.4 50.7 28 -7.5 18.4
18:30 1022 30.18 852 25.16 10.2 50.4 29 -6.9 19.5
18:35 1022 30.18 852 25.16 10.3 50.5 30 -6.7 20
18:40 1022 30.18 851 25.13 10.4 50.6 30 -6.4 20.5
18:45 1022 30.18 852 25.16 10.4 50.8 29 -6.8 19.7
18:50 1022 30.18 852 25.16 10.4 50.6 29 -6.8 19.8
18:55 1022 30.18 852 25.16 10.4 50.7 29 -6.8 19.8
19:00 1022 30.18 851 25.13 10.3 50.6 29 -6.8 19.8
19:05 1022 30.18 851 25.13 10.2 50.4 30 -6.6 20.2
19:10 1022 30.18 851 25.13 10.1 50.2 29 -6.9 19.6
19:15 1022 30.18 851 25.13 9.9 49.8 29 -7.2 19.1
19:20 1022 30.18 851 25.13 9.7 49.4 30 -7 19.3
19:25 1022 30.18 851 25.13 9.6 49.3 30 -7 19.4
19:30 1022 30.18 851 25.13 9.6 49.2 30 -7 19.4
19:35 1022 30.18 851 25.13 9.4 48.9 31 -7.1 19.3
19:40 1022 30.18 851 25.13 9.3 48.7 30 -7.2 19.1
19:45 1022 30.18 851 25.13 9.2 48.5 31 -7.2 19
19:50 1022 30.18 851 25.13 9.1 48.3 31 -7.1 19.2
19:55 1022 30.18 851 25.13 8.9 48.1 31 -7.2 19
20:00 1022 30.18 851 25.13 8.8 47.8 32 -7.2 19.1
20:05 1022 30.18 851 25.13 8.6 47.5 32 -7 19.4
20:10 1022 30.18 851 25.13 8.5 47.3 33 -7 19.4
20:15 1022 30.18 851 25.13 8.4 47 33 -6.9 19.7
20:20 1022 30.18 851 25.13 8.2 46.8 34 -6.8 19.8
20:25 1022 30.18 852 25.16 8 46.5 35 -6.6 20.2
20:30 1022 30.18 852 25.16 7.8 46.1 36 -6.4 20.5
20:35 1022 30.18 852 25.16 7.7 45.8 37 -6.2 20.9
20:40 1022 30.18 852 25.16 7.5 45.4 38 -6 21.2
20:45 1022 30.18 852 25.16 7.3 45.1 39 -5.7 21.8
20:50 1022 30.18 852 25.16 7.1 44.7 41 -5.4 22.2
20:55 1023 30.21 852 25.16 6.9 44.3 43 -4.8 23.3
21:00 1023 30.21 852 25.16 6.1 42.9 48 -4.1 24.6
21:05 1023 30.21 852 25.16 5 41.1 48 -5.1 22.8
21:10 1023 30.21 852 25.16 5.2 41.4 47 -5 22.9
21:15 1023 30.21 852 25.16 5.3 41.5 49 -4.6 23.7
21:20 1023 30.21 852 25.16 5.3 41.6 47 -5.1 22.8
21:25 1023 30.21 852 25.16 5.5 41.9 46 -5.1 22.8
21:30 1023 30.21 852 25.16 5.3 41.5 48 -4.8 23.3
21:35 1023 30.21 852 25.16 5 40.9 49 -4.8 23.3
21:40 1023 30.21 852 25.16 4.9 40.9 51 -4.4 24
21:45 1023 30.21 852 25.16 4.9 40.8 51 -4.3 24.2
21:50 1023 30.21 852 25.16 4.6 40.4 52 -4.3 24.3
21:55 1023 30.21 852 25.16 4.5 40.1 54 -4.1 24.7
22:00 1023 30.21 852 25.16 4.4 39.9 54 -4.1 24.7
22:05 1023 30.21 852 25.16 4.3 39.8 54 -4.2 24.5
22:10 1023 30.21 852 25.16 4.5 40.1 54 -4 24.7
22:15 1023 30.21 852 25.16 3.9 39.1 56 -4 24.8
22:20 1023 30.21 852 25.16 3.6 38.5 57 -4.2 24.5
22:25 1023 30.21 852 25.16 3.5 38.4 57 -4.1 24.5
22:30 1023 30.21 852 25.16 3.6 38.4 56 -4.3 24.3
22:35 1023 30.21 852 25.16 3.6 38.5 56 -4.4 24.1
22:40 1023 30.21 852 25.16 3.7 38.6 56 -4.4 24.1
22:45 1023 30.21 852 25.16 3.8 38.8 55 -4.4 24.1
22:50 1023 30.21 852 25.16 3.7 38.6 55 -4.5 24
22:55 1023 30.21 852 25.16 3.6 38.5 56 -4.3 24.2
23:00 1023 30.21 852 25.16 3.5 38.2 57 -4.2 24.4
23:05 1023 30.21 852 25.16 3.5 38.2 59 -3.8 25.1
23:10 1023 30.21 852 25.16 3.6 38.4 57 -4.2 24.4
23:15 1023 30.21 852 25.16 3.6 38.5 57 -4.2 24.4
23:20 1023 30.21 852 25.16 3.5 38.3 57 -4.1 24.5
23:25 1022 30.18 852 25.16 3.3 38 58 -4.2 24.5
23:30 1022 30.18 852 25.16 3.2 37.8 58 -4.2 24.5
23:35 1022 30.18 852 25.16 3 37.4 59 -4.1 24.6
23:40 1022 30.18 852 25.16 2.9 37.2 59 -4.4 24.1
23:45 1022 30.18 852 25.16 2.9 37.2 59 -4.3 24.3
23:50 1022 30.18 852 25.16 2.8 37 60 -4.2 24.4
23:55 1022 30.18 852 25.16 2.6 36.7 60 -4.3 24.2
24:00 1022 30.18 852 25.16 2.6 36.7 61 -4.3 24.3